sensor_id;sensor_type;location;lat;lon;timestamp;pressure;altitude;pressure_sealevel;temperature
79495;BMP180;68951;53.130;18.104;2023-11-21T00:02:03;100377.80;;;
79495;BMP180;68951;53.130;18.104;2023-11-21T00:04:31;100376.00;;;
79495;BMP180;68951;53.130;18.104;2023-11-21T00:06:57;100382.20;;;
79495;BMP180;68951;53.130;18.104;2023-11-21T00:09:24;100385.00;;;
79495;BMP180;68951;53.130;18.104;2023-11-21T00:11:51;100387.60;;;
79495;BMP180;68951;53.130;18.104;2023-11-21T00:14:18;100385.00;;;
79495;BMP180;68951;53.130;18.104;2023-11-21T00:16:44;100396.20;;;
79495;BMP180;68951;53.130;18.104;2023-11-21T00:19:12;100396.80;;;
79495;BMP180;68951;53.130;18.104;2023-11-21T00:21:39;100401.80;;;
79495;BMP180;68951;53.130;18.104;2023-11-21T00:24:06;100407.00;;;
79495;BMP180;68951;53.130;18.104;2023-11-21T00:26:34;100403.80;;;
79495;BMP180;68951;53.130;18.104;2023-11-21T00:29:03;100402.80;;;
79495;BMP180;68951;53.130;18.104;2023-11-21T00:31:30;100405.00;;;
79495;BMP180;68951;53.130;18.104;2023-11-21T00:33:57;100408.20;;;
79495;BMP180;68951;53.130;18.104;2023-11-21T00:36:24;100410.00;;;
79495;BMP180;68951;53.130;18.104;2023-11-21T00:38:52;100413.40;;;
79495;BMP180;68951;53.130;18.104;2023-11-21T00:41:19;100409.80;;;
79495;BMP180;68951;53.130;18.104;2023-11-21T00:43:45;100415.40;;;
79495;BMP180;68951;53.130;18.104;2023-11-21T00:46:12;100418.00;;;
79495;BMP180;68951;53.130;18.104;2023-11-21T00:48:40;100418.00;;;
79495;BMP180;68951;53.130;18.104;2023-11-21T00:51:06;100424.80;;;
79495;BMP180;68951;53.130;18.104;2023-11-21T00:53:33;100435.00;;;
79495;BMP180;68951;53.130;18.104;2023-11-21T00:56:00;100436.60;;;
79495;BMP180;68951;53.130;18.104;2023-11-21T00:58:27;100431.40;;;
79495;BMP180;68951;53.130;18.104;2023-11-21T01:00:54;100435.00;;;
79495;BMP180;68951;53.130;18.104;2023-11-21T01:03:20;100432.40;;;
79495;BMP180;68951;53.130;18.104;2023-11-21T01:05:47;100428.80;;;
79495;BMP180;68951;53.130;18.104;2023-11-21T01:08:16;100428.00;;;
79495;BMP180;68951;53.130;18.104;2023-11-21T01:10:43;100433.20;;;
79495;BMP180;68951;53.130;18.104;2023-11-21T01:13:10;100438.20;;;
79495;BMP180;68951;53.130;18.104;2023-11-21T01:15:37;100441.80;;;
79495;BMP180;68951;53.130;18.104;2023-11-21T01:18:04;100449.80;;;
79495;BMP180;68951;53.130;18.104;2023-11-21T01:20:31;100456.00;;;
79495;BMP180;68951;53.130;18.104;2023-11-21T01:22:58;100456.60;;;
79495;BMP180;68951;53.130;18.104;2023-11-21T01:25:24;100452.60;;;
79495;BMP180;68951;53.130;18.104;2023-11-21T01:27:52;100456.00;;;
79495;BMP180;68951;53.130;18.104;2023-11-21T01:30:19;100461.20;;;
79495;BMP180;68951;53.130;18.104;2023-11-21T01:32:46;100462.00;;;
79495;BMP180;68951;53.130;18.104;2023-11-21T01:35:12;100459.20;;;
79495;BMP180;68951;53.130;18.104;2023-11-21T01:37:39;100463.20;;;
79495;BMP180;68951;53.130;18.104;2023-11-21T01:40:07;100465.20;;;
79495;BMP180;68951;53.130;18.104;2023-11-21T01:42:37;100458.60;;;
79495;BMP180;68951;53.130;18.104;2023-11-21T01:45:04;100458.60;;;
79495;BMP180;68951;53.130;18.104;2023-11-21T01:47:35;100464.80;;;
79495;BMP180;68951;53.130;18.104;2023-11-21T01:50:03;100468.40;;;
79495;BMP180;68951;53.130;18.104;2023-11-21T01:52:35;100470.20;;;
79495;BMP180;68951;53.130;18.104;2023-11-21T01:55:03;100465.40;;;
79495;BMP180;68951;53.130;18.104;2023-11-21T01:57:30;100467.60;;;
79495;BMP180;68951;53.130;18.104;2023-11-21T02:00:01;100469.80;;;
79495;BMP180;68951;53.130;18.104;2023-11-21T02:02:48;100471.60;;;
79495;BMP180;68951;53.130;18.104;2023-11-21T02:05:17;100469.60;;;
79495;BMP180;68951;53.130;18.104;2023-11-21T02:07:51;100470.20;;;
79495;BMP180;68951;53.130;18.104;2023-11-21T02:10:19;100473.20;;;
79495;BMP180;68951;53.130;18.104;2023-11-21T02:12:49;100468.40;;;
79495;BMP180;68951;53.130;18.104;2023-11-21T02:15:19;100471.40;;;
79495;BMP180;68951;53.130;18.104;2023-11-21T02:17:54;100476.80;;;
79495;BMP180;68951;53.130;18.104;2023-11-21T02:20:22;100483.80;;;
79495;BMP180;68951;53.130;18.104;2023-11-21T02:22:53;100485.40;;;
79495;BMP180;68951;53.130;18.104;2023-11-21T02:25:30;100484.00;;;
79495;BMP180;68951;53.130;18.104;2023-11-21T02:28:00;100483.20;;;
79495;BMP180;68951;53.130;18.104;2023-11-21T02:30:28;100483.80;;;
79495;BMP180;68951;53.130;18.104;2023-11-21T02:32:55;100483.80;;;
79495;BMP180;68951;53.130;18.104;2023-11-21T02:35:23;100484.60;;;
79495;BMP180;68951;53.130;18.104;2023-11-21T02:37:53;100493.00;;;
79495;BMP180;68951;53.130;18.104;2023-11-21T02:40:20;100493.00;;;
79495;BMP180;68951;53.130;18.104;2023-11-21T02:42:47;100491.20;;;
79495;BMP180;68951;53.130;18.104;2023-11-21T02:45:15;100497.80;;;
79495;BMP180;68951;53.130;18.104;2023-11-21T02:47:44;100497.40;;;
79495;BMP180;68951;53.130;18.104;2023-11-21T02:50:12;100496.80;;;
79495;BMP180;68951;53.130;18.104;2023-11-21T02:52:39;100500.80;;;
79495;BMP180;68951;53.130;18.104;2023-11-21T02:55:06;100504.00;;;
79495;BMP180;68951;53.130;18.104;2023-11-21T02:57:36;100508.20;;;
79495;BMP180;68951;53.130;18.104;2023-11-21T03:00:03;100511.40;;;
79495;BMP180;68951;53.130;18.104;2023-11-21T03:02:34;100516.00;;;
79495;BMP180;68951;53.130;18.104;2023-11-21T03:05:06;100518.00;;;
79495;BMP180;68951;53.130;18.104;2023-11-21T03:07:37;100517.40;;;
79495;BMP180;68951;53.130;18.104;2023-11-21T03:10:08;100522.60;;;
79495;BMP180;68951;53.130;18.104;2023-11-21T03:12:38;100526.00;;;
79495;BMP180;68951;53.130;18.104;2023-11-21T03:15:06;100526.00;;;
79495;BMP180;68951;53.130;18.104;2023-11-21T03:17:33;100530.80;;;
79495;BMP180;68951;53.130;18.104;2023-11-21T03:20:00;100534.40;;;
79495;BMP180;68951;53.130;18.104;2023-11-21T03:22:27;100534.00;;;
79495;BMP180;68951;53.130;18.104;2023-11-21T03:24:54;100530.60;;;
79495;BMP180;68951;53.130;18.104;2023-11-21T03:27:21;100533.00;;;
79495;BMP180;68951;53.130;18.104;2023-11-21T03:29:48;100535.60;;;
79495;BMP180;68951;53.130;18.104;2023-11-21T03:32:15;100536.80;;;
79495;BMP180;68951;53.130;18.104;2023-11-21T03:34:57;100535.80;;;
79495;BMP180;68951;53.130;18.104;2023-11-21T03:37:25;100542.40;;;
79495;BMP180;68951;53.130;18.104;2023-11-21T03:39:57;100542.60;;;
79495;BMP180;68951;53.130;18.104;2023-11-21T03:42:24;100547.40;;;
79495;BMP180;68951;53.130;18.104;2023-11-21T03:44:54;100543.40;;;
79495;BMP180;68951;53.130;18.104;2023-11-21T03:47:21;100543.20;;;
79495;BMP180;68951;53.130;18.104;2023-11-21T03:49:48;100542.40;;;
79495;BMP180;68951;53.130;18.104;2023-11-21T03:52:15;100537.20;;;
79495;BMP180;68951;53.130;18.104;2023-11-21T03:54:42;100535.40;;;
79495;BMP180;68951;53.130;18.104;2023-11-21T03:57:10;100535.80;;;
79495;BMP180;68951;53.130;18.104;2023-11-21T03:59:40;100534.00;;;
79495;BMP180;68951;53.130;18.104;2023-11-21T04:02:08;100537.00;;;
79495;BMP180;68951;53.130;18.104;2023-11-21T04:04:35;100537.60;;;
79495;BMP180;68951;53.130;18.104;2023-11-21T04:07:03;100543.40;;;
79495;BMP180;68951;53.130;18.104;2023-11-21T04:09:30;100547.00;;;
79495;BMP180;68951;53.130;18.104;2023-11-21T04:11:57;100552.60;;;
79495;BMP180;68951;53.130;18.104;2023-11-21T04:14:24;100550.80;;;
79495;BMP180;68951;53.130;18.104;2023-11-21T04:16:51;100555.80;;;
79495;BMP180;68951;53.130;18.104;2023-11-21T04:19:17;100559.00;;;
79495;BMP180;68951;53.130;18.104;2023-11-21T04:21:44;100556.40;;;
79495;BMP180;68951;53.130;18.104;2023-11-21T04:24:11;100565.00;;;
79495;BMP180;68951;53.130;18.104;2023-11-21T04:26:38;100568.20;;;
79495;BMP180;68951;53.130;18.104;2023-11-21T04:29:05;100570.40;;;
79495;BMP180;68951;53.130;18.104;2023-11-21T04:31:31;100578.60;;;
79495;BMP180;68951;53.130;18.104;2023-11-21T04:33:58;100577.60;;;
79495;BMP180;68951;53.130;18.104;2023-11-21T04:36:25;100573.20;;;
79495;BMP180;68951;53.130;18.104;2023-11-21T04:38:52;100579.20;;;
79495;BMP180;68951;53.130;18.104;2023-11-21T04:41:18;100584.20;;;
79495;BMP180;68951;53.130;18.104;2023-11-21T04:43:45;100588.40;;;
79495;BMP180;68951;53.130;18.104;2023-11-21T04:46:12;100584.60;;;
79495;BMP180;68951;53.130;18.104;2023-11-21T04:48:39;100591.00;;;
79495;BMP180;68951;53.130;18.104;2023-11-21T04:51:06;100594.80;;;
79495;BMP180;68951;53.130;18.104;2023-11-21T04:53:33;100592.80;;;
79495;BMP180;68951;53.130;18.104;2023-11-21T04:56:01;100597.20;;;
79495;BMP180;68951;53.130;18.104;2023-11-21T04:58:27;100604.20;;;
79495;BMP180;68951;53.130;18.104;2023-11-21T05:00:54;100611.40;;;
79495;BMP180;68951;53.130;18.104;2023-11-21T05:03:21;100615.20;;;
79495;BMP180;68951;53.130;18.104;2023-11-21T05:05:50;100625.20;;;
79495;BMP180;68951;53.130;18.104;2023-11-21T05:08:17;100628.60;;;
79495;BMP180;68951;53.130;18.104;2023-11-21T05:10:43;100633.00;;;
79495;BMP180;68951;53.130;18.104;2023-11-21T05:13:10;100633.20;;;
79495;BMP180;68951;53.130;18.104;2023-11-21T05:15:37;100628.80;;;
79495;BMP180;68951;53.130;18.104;2023-11-21T05:18:05;100630.00;;;
79495;BMP180;68951;53.130;18.104;2023-11-21T05:20:32;100631.40;;;
79495;BMP180;68951;53.130;18.104;2023-11-21T05:22:59;100626.40;;;
79495;BMP180;68951;53.130;18.104;2023-11-21T05:25:26;100629.20;;;
79495;BMP180;68951;53.130;18.104;2023-11-21T05:27:53;100629.80;;;
79495;BMP180;68951;53.130;18.104;2023-11-21T05:30:21;100630.20;;;
79495;BMP180;68951;53.130;18.104;2023-11-21T05:32:48;100633.80;;;
79495;BMP180;68951;53.130;18.104;2023-11-21T05:35:16;100644.40;;;
79495;BMP180;68951;53.130;18.104;2023-11-21T05:37:44;100646.20;;;
79495;BMP180;68951;53.130;18.104;2023-11-21T05:40:12;100653.60;;;
79495;BMP180;68951;53.130;18.104;2023-11-21T05:42:40;100657.40;;;
79495;BMP180;68951;53.130;18.104;2023-11-21T05:45:08;100659.20;;;
79495;BMP180;68951;53.130;18.104;2023-11-21T05:47:41;100666.60;;;
79495;BMP180;68951;53.130;18.104;2023-11-21T05:50:10;100667.40;;;
79495;BMP180;68951;53.130;18.104;2023-11-21T05:52:38;100670.40;;;
79495;BMP180;68951;53.130;18.104;2023-11-21T05:55:07;100672.60;;;
79495;BMP180;68951;53.130;18.104;2023-11-21T05:57:35;100676.60;;;
79495;BMP180;68951;53.130;18.104;2023-11-21T06:00:08;100675.60;;;
79495;BMP180;68951;53.130;18.104;2023-11-21T06:02:54;100678.00;;;
79495;BMP180;68951;53.130;18.104;2023-11-21T06:05:23;100682.80;;;
79495;BMP180;68951;53.130;18.104;2023-11-21T06:07:52;100689.40;;;
79495;BMP180;68951;53.130;18.104;2023-11-21T06:10:22;100692.20;;;
79495;BMP180;68951;53.130;18.104;2023-11-21T06:12:50;100699.60;;;
79495;BMP180;68951;53.130;18.104;2023-11-21T06:15:17;100708.20;;;
79495;BMP180;68951;53.130;18.104;2023-11-21T06:17:47;100713.00;;;
79495;BMP180;68951;53.130;18.104;2023-11-21T06:20:18;100712.80;;;
79495;BMP180;68951;53.130;18.104;2023-11-21T06:22:48;100720.20;;;
79495;BMP180;68951;53.130;18.104;2023-11-21T06:25:15;100724.60;;;
79495;BMP180;68951;53.130;18.104;2023-11-21T06:27:47;100724.20;;;
79495;BMP180;68951;53.130;18.104;2023-11-21T06:30:15;100734.80;;;
79495;BMP180;68951;53.130;18.104;2023-11-21T06:32:42;100742.00;;;
79495;BMP180;68951;53.130;18.104;2023-11-21T06:35:13;100747.80;;;
79495;BMP180;68951;53.130;18.104;2023-11-21T06:37:40;100749.00;;;
79495;BMP180;68951;53.130;18.104;2023-11-21T06:40:07;100749.40;;;
79495;BMP180;68951;53.130;18.104;2023-11-21T06:42:36;100749.40;;;
79495;BMP180;68951;53.130;18.104;2023-11-21T06:45:05;100752.60;;;
79495;BMP180;68951;53.130;18.104;2023-11-21T06:47:32;100754.40;;;
79495;BMP180;68951;53.130;18.104;2023-11-21T06:49:59;100750.40;;;
79495;BMP180;68951;53.130;18.104;2023-11-21T06:52:27;100760.80;;;
79495;BMP180;68951;53.130;18.104;2023-11-21T06:54:54;100762.40;;;
79495;BMP180;68951;53.130;18.104;2023-11-21T06:57:23;100768.60;;;
79495;BMP180;68951;53.130;18.104;2023-11-21T06:59:50;100772.60;;;
79495;BMP180;68951;53.130;18.104;2023-11-21T07:02:19;100776.20;;;
79495;BMP180;68951;53.130;18.104;2023-11-21T07:04:46;100781.20;;;
79495;BMP180;68951;53.130;18.104;2023-11-21T07:07:13;100778.60;;;
79495;BMP180;68951;53.130;18.104;2023-11-21T07:09:40;100784.60;;;
79495;BMP180;68951;53.130;18.104;2023-11-21T07:12:07;100785.80;;;
79495;BMP180;68951;53.130;18.104;2023-11-21T07:14:34;100792.80;;;
79495;BMP180;68951;53.130;18.104;2023-11-21T07:17:01;100792.40;;;
79495;BMP180;68951;53.130;18.104;2023-11-21T07:19:28;100796.00;;;
79495;BMP180;68951;53.130;18.104;2023-11-21T07:21:55;100800.60;;;
79495;BMP180;68951;53.130;18.104;2023-11-21T07:24:22;100800.00;;;
79495;BMP180;68951;53.130;18.104;2023-11-21T07:26:49;100803.00;;;
79495;BMP180;68951;53.130;18.104;2023-11-21T07:29:16;100807.20;;;
79495;BMP180;68951;53.130;18.104;2023-11-21T07:31:43;100814.00;;;
79495;BMP180;68951;53.130;18.104;2023-11-21T07:34:09;100811.40;;;
79495;BMP180;68951;53.130;18.104;2023-11-21T07:36:38;100819.80;;;
79495;BMP180;68951;53.130;18.104;2023-11-21T07:39:05;100823.20;;;
79495;BMP180;68951;53.130;18.104;2023-11-21T07:41:33;100829.00;;;
79495;BMP180;68951;53.130;18.104;2023-11-21T07:43:59;100833.60;;;
79495;BMP180;68951;53.130;18.104;2023-11-21T07:46:26;100833.60;;;
79495;BMP180;68951;53.130;18.104;2023-11-21T07:48:53;100834.60;;;
79495;BMP180;68951;53.130;18.104;2023-11-21T07:51:21;100831.00;;;
79495;BMP180;68951;53.130;18.104;2023-11-21T07:53:48;100828.00;;;
79495;BMP180;68951;53.130;18.104;2023-11-21T07:56:16;100827.20;;;
79495;BMP180;68951;53.130;18.104;2023-11-21T07:58:42;100830.20;;;
79495;BMP180;68951;53.130;18.104;2023-11-21T08:01:09;100828.00;;;
79495;BMP180;68951;53.130;18.104;2023-11-21T08:03:36;100831.80;;;
79495;BMP180;68951;53.130;18.104;2023-11-21T08:06:03;100836.80;;;
79495;BMP180;68951;53.130;18.104;2023-11-21T08:08:32;100844.80;;;
79495;BMP180;68951;53.130;18.104;2023-11-21T08:10:59;100841.60;;;
79495;BMP180;68951;53.130;18.104;2023-11-21T08:13:29;100845.40;;;
79495;BMP180;68951;53.130;18.104;2023-11-21T08:15:58;100846.80;;;
79495;BMP180;68951;53.130;18.104;2023-11-21T08:18:34;100846.00;;;
79495;BMP180;68951;53.130;18.104;2023-11-21T08:21:02;100842.40;;;
79495;BMP180;68951;53.130;18.104;2023-11-21T08:23:29;100846.20;;;
79495;BMP180;68951;53.130;18.104;2023-11-21T08:25:56;100843.20;;;
79495;BMP180;68951;53.130;18.104;2023-11-21T08:28:23;100844.80;;;
79495;BMP180;68951;53.130;18.104;2023-11-21T08:30:52;100844.60;;;
79495;BMP180;68951;53.130;18.104;2023-11-21T08:33:20;100857.40;;;
79495;BMP180;68951;53.130;18.104;2023-11-21T08:35:48;100855.80;;;
79495;BMP180;68951;53.130;18.104;2023-11-21T08:38:15;100854.00;;;
79495;BMP180;68951;53.130;18.104;2023-11-21T08:40:42;100850.80;;;
79495;BMP180;68951;53.130;18.104;2023-11-21T08:43:09;100844.40;;;
79495;BMP180;68951;53.130;18.104;2023-11-21T08:45:35;100854.60;;;
79495;BMP180;68951;53.130;18.104;2023-11-21T08:48:03;100852.20;;;
79495;BMP180;68951;53.130;18.104;2023-11-21T08:50:29;100851.80;;;
79495;BMP180;68951;53.130;18.104;2023-11-21T08:52:56;100849.80;;;
79495;BMP180;68951;53.130;18.104;2023-11-21T08:55:23;100858.00;;;
79495;BMP180;68951;53.130;18.104;2023-11-21T08:57:50;100860.60;;;
79495;BMP180;68951;53.130;18.104;2023-11-21T09:00:17;100860.80;;;
79495;BMP180;68951;53.130;18.104;2023-11-21T09:02:45;100865.60;;;
79495;BMP180;68951;53.130;18.104;2023-11-21T09:05:13;100870.60;;;
79495;BMP180;68951;53.130;18.104;2023-11-21T09:07:42;100867.60;;;
79495;BMP180;68951;53.130;18.104;2023-11-21T09:10:09;100870.20;;;
79495;BMP180;68951;53.130;18.104;2023-11-21T09:12:39;100874.20;;;
79495;BMP180;68951;53.130;18.104;2023-11-21T09:15:07;100886.40;;;
79495;BMP180;68951;53.130;18.104;2023-11-21T09:17:36;100881.60;;;
79495;BMP180;68951;53.130;18.104;2023-11-21T09:20:04;100882.20;;;
79495;BMP180;68951;53.130;18.104;2023-11-21T09:22:32;100884.80;;;
79495;BMP180;68951;53.130;18.104;2023-11-21T09:24:59;100886.40;;;
79495;BMP180;68951;53.130;18.104;2023-11-21T09:27:26;100888.60;;;
79495;BMP180;68951;53.130;18.104;2023-11-21T09:29:53;100887.40;;;
79495;BMP180;68951;53.130;18.104;2023-11-21T09:32:20;100893.00;;;
79495;BMP180;68951;53.130;18.104;2023-11-21T09:34:50;100902.20;;;
79495;BMP180;68951;53.130;18.104;2023-11-21T09:37:17;100906.80;;;
79495;BMP180;68951;53.130;18.104;2023-11-21T09:39:45;100907.40;;;
79495;BMP180;68951;53.130;18.104;2023-11-21T09:42:27;100908.40;;;
79495;BMP180;68951;53.130;18.104;2023-11-21T09:45:27;100909.00;;;
79495;BMP180;68951;53.130;18.104;2023-11-21T09:47:58;100915.20;;;
79495;BMP180;68951;53.130;18.104;2023-11-21T09:50:25;100914.60;;;
79495;BMP180;68951;53.130;18.104;2023-11-21T09:53:17;100915.40;;;
79495;BMP180;68951;53.130;18.104;2023-11-21T09:55:47;100918.20;;;
79495;BMP180;68951;53.130;18.104;2023-11-21T09:58:15;100920.20;;;
79495;BMP180;68951;53.130;18.104;2023-11-21T10:00:47;100916.20;;;
79495;BMP180;68951;53.130;18.104;2023-11-21T10:03:15;100911.60;;;
79495;BMP180;68951;53.130;18.104;2023-11-21T10:05:43;100913.00;;;
79495;BMP180;68951;53.130;18.104;2023-11-21T10:08:12;100918.20;;;
79495;BMP180;68951;53.130;18.104;2023-11-21T10:10:45;100911.80;;;
79495;BMP180;68951;53.130;18.104;2023-11-21T10:13:13;100914.60;;;
79495;BMP180;68951;53.130;18.104;2023-11-21T10:15:43;100916.20;;;
79495;BMP180;68951;53.130;18.104;2023-11-21T10:18:16;100916.00;;;
79495;BMP180;68951;53.130;18.104;2023-11-21T10:20:44;100914.00;;;
79495;BMP180;68951;53.130;18.104;2023-11-21T10:23:22;100918.80;;;
79495;BMP180;68951;53.130;18.104;2023-11-21T10:25:51;100927.60;;;
79495;BMP180;68951;53.130;18.104;2023-11-21T10:28:18;100926.80;;;
79495;BMP180;68951;53.130;18.104;2023-11-21T10:30:47;100929.00;;;
79495;BMP180;68951;53.130;18.104;2023-11-21T10:33:13;100927.60;;;
79495;BMP180;68951;53.130;18.104;2023-11-21T10:35:48;100933.00;;;
79495;BMP180;68951;53.130;18.104;2023-11-21T10:38:23;100944.40;;;
79495;BMP180;68951;53.130;18.104;2023-11-21T10:40:51;100944.00;;;
79495;BMP180;68951;53.130;18.104;2023-11-21T10:43:18;100946.00;;;
79495;BMP180;68951;53.130;18.104;2023-11-21T10:45:45;100945.40;;;
79495;BMP180;68951;53.130;18.104;2023-11-21T10:48:14;100944.80;;;
79495;BMP180;68951;53.130;18.104;2023-11-21T10:50:47;100949.80;;;
79495;BMP180;68951;53.130;18.104;2023-11-21T10:53:14;100950.80;;;
79495;BMP180;68951;53.130;18.104;2023-11-21T10:55:42;100949.80;;;
79495;BMP180;68951;53.130;18.104;2023-11-21T10:58:13;100954.00;;;
79495;BMP180;68951;53.130;18.104;2023-11-21T11:00:41;100953.00;;;
79495;BMP180;68951;53.130;18.104;2023-11-21T11:03:08;100955.40;;;
79495;BMP180;68951;53.130;18.104;2023-11-21T11:05:43;100951.60;;;
79495;BMP180;68951;53.130;18.104;2023-11-21T11:08:20;100951.00;;;
79495;BMP180;68951;53.130;18.104;2023-11-21T11:10:53;100954.20;;;
79495;BMP180;68951;53.130;18.104;2023-11-21T11:13:20;100950.00;;;
79495;BMP180;68951;53.130;18.104;2023-11-21T11:15:47;100958.80;;;
79495;BMP180;68951;53.130;18.104;2023-11-21T11:18:16;100965.80;;;
79495;BMP180;68951;53.130;18.104;2023-11-21T11:20:47;100964.20;;;
79495;BMP180;68951;53.130;18.104;2023-11-21T11:23:55;100966.60;;;
79495;BMP180;68951;53.130;18.104;2023-11-21T11:27:12;100975.80;;;
79495;BMP180;68951;53.130;18.104;2023-11-21T11:35:29;100983.20;;;
79495;BMP180;68951;53.130;18.104;2023-11-21T11:37:58;100989.20;;;
79495;BMP180;68951;53.130;18.104;2023-11-21T11:40:44;100993.00;;;
79495;BMP180;68951;53.130;18.104;2023-11-21T11:43:12;100995.60;;;
79495;BMP180;68951;53.130;18.104;2023-11-21T11:45:39;101004.40;;;
79495;BMP180;68951;53.130;18.104;2023-11-21T11:48:11;101007.60;;;
79495;BMP180;68951;53.130;18.104;2023-11-21T11:51:10;101011.60;;;
79495;BMP180;68951;53.130;18.104;2023-11-21T11:53:40;101017.60;;;
79495;BMP180;68951;53.130;18.104;2023-11-21T11:56:28;101018.20;;;
79495;BMP180;68951;53.130;18.104;2023-11-21T11:58:59;101017.40;;;
79495;BMP180;68951;53.130;18.104;2023-11-21T12:01:27;101025.40;;;
79495;BMP180;68951;53.130;18.104;2023-11-21T12:06:52;101021.60;;;
79495;BMP180;68951;53.130;18.104;2023-11-21T12:09:22;101022.00;;;
79495;BMP180;68951;53.130;18.104;2023-11-21T12:11:50;101021.40;;;
79495;BMP180;68951;53.130;18.104;2023-11-21T12:14:17;101024.80;;;
79495;BMP180;68951;53.130;18.104;2023-11-21T12:16:45;101021.80;;;
79495;BMP180;68951;53.130;18.104;2023-11-21T12:19:12;101027.20;;;
79495;BMP180;68951;53.130;18.104;2023-11-21T12:21:40;101032.80;;;
79495;BMP180;68951;53.130;18.104;2023-11-21T12:24:10;101033.40;;;
79495;BMP180;68951;53.130;18.104;2023-11-21T12:26:41;101029.80;;;
79495;BMP180;68951;53.130;18.104;2023-11-21T12:29:08;101031.20;;;
79495;BMP180;68951;53.130;18.104;2023-11-21T12:31:35;101030.20;;;
79495;BMP180;68951;53.130;18.104;2023-11-21T12:34:04;101029.20;;;
79495;BMP180;68951;53.130;18.104;2023-11-21T12:36:33;101028.80;;;
79495;BMP180;68951;53.130;18.104;2023-11-21T12:39:01;101029.60;;;
79495;BMP180;68951;53.130;18.104;2023-11-21T12:41:29;101031.60;;;
79495;BMP180;68951;53.130;18.104;2023-11-21T12:43:57;101035.00;;;
79495;BMP180;68951;53.130;18.104;2023-11-21T12:46:24;101033.00;;;
79495;BMP180;68951;53.130;18.104;2023-11-21T12:48:54;101032.60;;;
79495;BMP180;68951;53.130;18.104;2023-11-21T12:51:23;101044.80;;;
79495;BMP180;68951;53.130;18.104;2023-11-21T12:53:49;101046.20;;;
79495;BMP180;68951;53.130;18.104;2023-11-21T12:56:17;101048.00;;;
79495;BMP180;68951;53.130;18.104;2023-11-21T12:58:45;101056.40;;;
79495;BMP180;68951;53.130;18.104;2023-11-21T13:01:14;101057.60;;;
79495;BMP180;68951;53.130;18.104;2023-11-21T13:03:49;101061.80;;;
79495;BMP180;68951;53.130;18.104;2023-11-21T13:06:18;101065.80;;;
79495;BMP180;68951;53.130;18.104;2023-11-21T13:08:46;101067.80;;;
79495;BMP180;68951;53.130;18.104;2023-11-21T13:11:14;101070.40;;;
79495;BMP180;68951;53.130;18.104;2023-11-21T13:13:42;101082.00;;;
79495;BMP180;68951;53.130;18.104;2023-11-21T13:16:10;101082.20;;;
79495;BMP180;68951;53.130;18.104;2023-11-21T13:18:37;101085.60;;;
79495;BMP180;68951;53.130;18.104;2023-11-21T13:21:09;101090.60;;;
79495;BMP180;68951;53.130;18.104;2023-11-21T13:23:45;101100.20;;;
79495;BMP180;68951;53.130;18.104;2023-11-21T13:26:13;101106.00;;;
79495;BMP180;68951;53.130;18.104;2023-11-21T13:28:41;101100.20;;;
79495;BMP180;68951;53.130;18.104;2023-11-21T13:31:13;101101.20;;;
79495;BMP180;68951;53.130;18.104;2023-11-21T13:33:53;101107.00;;;
79495;BMP180;68951;53.130;18.104;2023-11-21T13:36:25;101110.40;;;
79495;BMP180;68951;53.130;18.104;2023-11-21T13:38:52;101112.60;;;
79495;BMP180;68951;53.130;18.104;2023-11-21T13:41:20;101116.60;;;
79495;BMP180;68951;53.130;18.104;2023-11-21T13:43:54;101126.80;;;
79495;BMP180;68951;53.130;18.104;2023-11-21T13:46:30;101124.60;;;
79495;BMP180;68951;53.130;18.104;2023-11-21T13:49:03;101116.80;;;
79495;BMP180;68951;53.130;18.104;2023-11-21T13:51:32;101121.00;;;
79495;BMP180;68951;53.130;18.104;2023-11-21T13:54:07;101123.80;;;
79495;BMP180;68951;53.130;18.104;2023-11-21T13:56:37;101132.80;;;
79495;BMP180;68951;53.130;18.104;2023-11-21T13:59:05;101139.60;;;
79495;BMP180;68951;53.130;18.104;2023-11-21T14:02:01;101149.60;;;
79495;BMP180;68951;53.130;18.104;2023-11-21T14:04:43;101150.80;;;
79495;BMP180;68951;53.130;18.104;2023-11-21T14:07:23;101149.20;;;
79495;BMP180;68951;53.130;18.104;2023-11-21T14:10:03;101156.40;;;
79495;BMP180;68951;53.130;18.104;2023-11-21T14:12:30;101163.80;;;
79495;BMP180;68951;53.130;18.104;2023-11-21T14:15:00;101163.00;;;
79495;BMP180;68951;53.130;18.104;2023-11-21T14:17:29;101161.80;;;
79495;BMP180;68951;53.130;18.104;2023-11-21T14:19:56;101163.60;;;
79495;BMP180;68951;53.130;18.104;2023-11-21T14:22:22;101165.40;;;
79495;BMP180;68951;53.130;18.104;2023-11-21T14:24:52;101168.20;;;
79495;BMP180;68951;53.130;18.104;2023-11-21T14:27:19;101170.80;;;
79495;BMP180;68951;53.130;18.104;2023-11-21T14:29:46;101170.60;;;
79495;BMP180;68951;53.130;18.104;2023-11-21T14:32:13;101175.40;;;
79495;BMP180;68951;53.130;18.104;2023-11-21T14:34:40;101178.60;;;
79495;BMP180;68951;53.130;18.104;2023-11-21T14:37:09;101183.60;;;
79495;BMP180;68951;53.130;18.104;2023-11-21T14:39:40;101196.60;;;
79495;BMP180;68951;53.130;18.104;2023-11-21T14:42:11;101197.80;;;
79495;BMP180;68951;53.130;18.104;2023-11-21T14:44:38;101197.20;;;
79495;BMP180;68951;53.130;18.104;2023-11-21T14:47:08;101200.60;;;
79495;BMP180;68951;53.130;18.104;2023-11-21T14:49:42;101201.80;;;
79495;BMP180;68951;53.130;18.104;2023-11-21T14:52:19;101204.00;;;
79495;BMP180;68951;53.130;18.104;2023-11-21T14:55:07;101203.00;;;
79495;BMP180;68951;53.130;18.104;2023-11-21T14:57:52;101203.60;;;
79495;BMP180;68951;53.130;18.104;2023-11-21T15:00:20;101210.80;;;
79495;BMP180;68951;53.130;18.104;2023-11-21T15:03:04;101213.80;;;
79495;BMP180;68951;53.130;18.104;2023-11-21T15:05:31;101214.20;;;
79495;BMP180;68951;53.130;18.104;2023-11-21T15:07:58;101214.20;;;
79495;BMP180;68951;53.130;18.104;2023-11-21T15:10:39;101209.80;;;